createdAt,value
2023-04-16T00:02:38.248Z,99456.00
2023-04-16T00:05:17.252Z,99458.34
2023-04-16T00:07:58.394Z,99460.13
2023-04-16T00:10:44.593Z,99458.81
2023-04-16T00:13:28.121Z,99464.34
2023-04-16T00:16:06.593Z,99459.59
2023-04-16T00:18:52.007Z,99456.63
2023-04-16T00:21:35.637Z,99458.75
2023-04-16T00:24:21.833Z,99472.97
2023-04-16T00:27:05.541Z,99470.63
2023-04-16T00:29:49.862Z,99470.75
2023-04-16T00:32:33.237Z,99466.81
2023-04-16T00:35:13.929Z,99469.22
2023-04-16T00:37:49.240Z,99476.44
2023-04-16T00:40:32.695Z,99473.44
2023-04-16T00:43:08.526Z,99466.63
2023-04-16T00:45:49.763Z,99467.19
2023-04-16T00:48:33.376Z,99463.81
2023-04-16T00:51:11.639Z,99469.09
2023-04-16T00:53:56.038Z,99473.38
2023-04-16T00:56:42.742Z,99477.78
2023-04-16T00:59:23.530Z,99473.16
2023-04-16T01:02:07.925Z,99472.53
2023-04-16T01:04:51.747Z,99476.69
2023-04-16T01:07:30.166Z,99472.97
2023-04-16T01:10:14.328Z,99473.38
2023-04-16T01:13:00.575Z,99467.00
2023-04-16T01:15:39.017Z,99456.25
2023-04-16T01:18:25.920Z,99457.97
2023-04-16T01:21:12.011Z,99457.78
2023-04-16T01:23:54.863Z,99451.81
2023-04-16T01:26:31.035Z,99463.25
2023-04-16T01:29:10.119Z,99459.84
2023-04-16T01:32:04.065Z,99462.59
2023-04-16T01:34:50.664Z,99466.88
2023-04-16T01:37:41.097Z,99471.94
2023-04-16T01:40:15.535Z,99464.09
2023-04-16T01:42:51.179Z,99473.41
2023-04-16T01:45:26.073Z,99469.66
2023-04-16T01:48:05.199Z,99466.88
2023-04-16T01:50:46.090Z,99460.22
2023-04-16T01:53:29.472Z,99469.53
2023-04-16T01:55:59.094Z,99481.63
2023-04-16T01:58:43.896Z,99481.63
2023-04-16T02:01:19.089Z,99479.16
2023-04-16T02:03:58.940Z,99484.88
2023-04-16T02:06:40.330Z,99487.06
2023-04-16T02:09:21.213Z,99497.50
2023-04-16T02:12:02.613Z,99485.81
2023-04-16T02:14:41.542Z,99487.09
2023-04-16T02:17:22.280Z,99484.13
2023-04-16T02:20:18.808Z,99485.81
2023-04-16T02:23:00.968Z,99493.34
2023-04-16T02:25:44.632Z,99494.66
2023-04-16T02:28:23.030Z,99494.00
2023-04-16T02:31:06.834Z,99488.38
2023-04-16T02:33:43.833Z,99493.66
2023-04-16T02:36:25.055Z,99492.44
2023-04-16T02:39:06.882Z,99496.84
2023-04-16T02:41:39.525Z,99493.16
2023-04-16T02:44:14.834Z,99490.13
2023-04-16T02:46:49.971Z,99502.09
2023-04-16T02:49:31.838Z,99498.13
2023-04-16T02:52:09.085Z,99496.09
2023-04-16T02:54:51.787Z,99504.09
2023-04-16T02:57:39.233Z,99504.88
2023-04-16T03:00:10.024Z,99501.19
2023-04-16T03:02:47.127Z,99494.66
2023-04-16T03:05:31.543Z,99507.84
2023-04-16T03:08:15.549Z,99503.56
2023-04-16T03:10:48.254Z,99510.00
2023-04-16T03:13:31.392Z,99502.88
2023-04-16T03:16:06.804Z,99504.38
2023-04-16T03:18:48.566Z,99497.91
2023-04-16T03:21:31.808Z,99508.09
2023-04-16T03:24:07.847Z,99513.66
2023-04-16T03:26:49.161Z,99516.81
2023-04-16T03:29:27.565Z,99517.94
2023-04-16T03:32:13.152Z,99519.56
2023-04-16T03:34:54.883Z,99528.75
2023-04-16T03:37:36.044Z,99533.00
2023-04-16T03:40:15.021Z,99540.34
2023-04-16T03:42:47.441Z,99536.69
2023-04-16T03:45:24.551Z,99550.22
2023-04-16T03:48:06.581Z,99546.41
2023-04-16T03:50:51.820Z,99549.44
2023-04-16T03:53:28.821Z,99546.25
2023-04-16T03:56:09.675Z,99553.06
2023-04-16T03:58:50.926Z,99560.06
2023-04-16T04:01:27.406Z,99571.94
2023-04-16T04:04:09.023Z,99571.41
2023-04-16T04:06:51.307Z,99568.06
2023-04-16T04:09:26.771Z,99580.38
2023-04-16T04:12:13.813Z,99572.31
2023-04-16T04:15:02.908Z,99584.13
2023-04-16T04:17:36.157Z,99580.41
2023-04-16T04:20:22.582Z,99582.56
2023-04-16T04:23:01.121Z,99584.84
2023-04-16T04:25:39.501Z,99591.78
2023-04-16T04:28:19.740Z,99593.91
2023-04-16T04:31:01.930Z,99590.34
2023-04-16T04:33:37.609Z,99592.66
2023-04-16T04:36:18.325Z,99596.78
2023-04-16T04:38:59.602Z,99588.84
2023-04-16T04:41:45.253Z,99581.13
2023-04-16T04:44:26.972Z,99586.38
2023-04-16T04:47:08.357Z,99589.81
2023-04-16T04:49:47.864Z,99582.53
2023-04-16T04:52:23.602Z,99576.81
2023-04-16T04:55:04.449Z,99570.94
2023-04-16T04:57:45.192Z,99568.91
2023-04-16T05:00:26.315Z,99582.19
2023-04-16T05:03:10.592Z,99588.31
2023-04-16T05:05:45.270Z,99598.34
2023-04-16T05:08:27.227Z,99601.84
2023-04-16T05:11:17.247Z,99605.94
2023-04-16T05:13:50.817Z,99603.81
2023-04-16T05:16:29.052Z,99599.91
2023-04-16T05:19:15.145Z,99594.22
2023-04-16T05:21:49.864Z,99603.09
2023-04-16T05:24:31.479Z,99599.41
2023-04-16T05:27:09.734Z,99602.25
2023-04-16T05:29:47.741Z,99600.78
2023-04-16T05:32:28.550Z,99600.22
2023-04-16T05:35:03.350Z,99602.59
2023-04-16T05:37:41.526Z,99600.44
2023-04-16T05:40:22.232Z,99603.41
2023-04-16T05:43:00.512Z,99613.78
2023-04-16T05:45:41.252Z,99615.34
2023-04-16T05:48:16.467Z,99619.22
2023-04-16T05:50:54.338Z,99627.25
2023-04-16T05:53:30.277Z,99629.41
2023-04-16T05:56:12.130Z,99645.59
2023-04-16T05:58:53.057Z,99657.53
2023-04-16T06:01:41.160Z,99666.53
2023-04-16T06:04:20.440Z,99656.28
2023-04-16T06:07:08.214Z,99662.19
2023-04-16T06:09:51.932Z,99654.22
2023-04-16T06:12:32.638Z,99652.38
2023-04-16T06:15:08.018Z,99648.31
2023-04-16T06:17:52.816Z,99648.56
2023-04-16T06:20:36.077Z,99642.81
2023-04-16T06:23:08.813Z,99648.16
2023-04-16T06:25:55.469Z,99648.38
2023-04-16T06:28:36.349Z,99645.50
2023-04-16T06:31:17.311Z,99651.31
2023-04-16T06:33:58.049Z,99642.59
2023-04-16T06:36:46.796Z,99644.44
2023-04-16T06:39:24.690Z,99640.13
2023-04-16T06:42:07.629Z,99643.63
2023-04-16T06:44:48.423Z,99638.03
2023-04-16T06:47:34.200Z,99634.84
2023-04-16T06:50:15.245Z,99636.44
2023-04-16T06:52:56.845Z,99646.13
2023-04-16T06:55:39.773Z,99646.66
2023-04-16T06:58:31.899Z,99633.09
2023-04-16T07:01:16.403Z,99623.44
2023-04-16T07:03:55.070Z,99634.44
2023-04-16T07:06:36.958Z,99633.91
2023-04-16T07:09:23.175Z,99639.91
2023-04-16T07:12:07.125Z,99638.03
2023-04-16T07:14:49.781Z,99636.44
2023-04-16T07:17:38.534Z,99639.84
2023-04-16T07:20:19.743Z,99642.13
2023-04-16T07:22:54.404Z,99641.69
2023-04-16T07:25:37.616Z,99646.66
2023-04-16T07:28:24.614Z,99645.38
2023-04-16T07:31:09.790Z,99646.53
2023-04-16T07:33:42.592Z,99654.50
2023-04-16T07:36:30.125Z,99652.16
2023-04-16T07:39:13.804Z,99652.78
2023-04-16T07:41:59.036Z,99649.03
2023-04-16T07:44:44.440Z,99651.19
2023-04-16T07:47:29.478Z,99643.38
2023-04-16T07:50:07.298Z,99648.75
2023-04-16T07:52:53.928Z,99650.19
2023-04-16T07:55:37.287Z,99641.56
2023-04-16T07:58:18.071Z,99650.66
2023-04-16T08:00:58.866Z,99639.31
2023-04-16T08:03:37.791Z,99644.25
2023-04-16T08:06:23.659Z,99641.91
2023-04-16T08:09:04.230Z,99641.78
2023-04-16T08:11:45.026Z,99635.19
2023-04-16T08:14:26.356Z,99642.16
2023-04-16T08:17:10.201Z,99637.50
2023-04-16T08:19:53.898Z,99640.09
2023-04-16T08:22:31.684Z,99631.19
2023-04-16T08:25:16.123Z,99635.81
2023-04-16T08:28:02.413Z,99635.75
2023-04-16T08:30:45.718Z,99635.31
2023-04-16T08:33:33.031Z,99636.13
2023-04-16T08:36:14.836Z,99630.25
2023-04-16T08:38:52.801Z,99628.78
2023-04-16T08:41:36.597Z,99627.56
2023-04-16T08:44:35.455Z,99629.91
2023-04-16T08:47:12.662Z,99635.13
2023-04-16T08:50:02.090Z,99642.13
2023-04-16T08:52:50.709Z,99645.66
2023-04-16T08:55:41.189Z,99650.16
2023-04-16T08:58:42.392Z,99650.94
2023-04-16T09:01:30.040Z,99658.88
2023-04-16T09:04:22.678Z,99656.97
2023-04-16T09:07:08.940Z,99656.88
2023-04-16T09:09:54.812Z,99654.59
2023-04-16T09:12:35.614Z,99661.94
2023-04-16T09:15:26.502Z,99659.22
2023-04-16T09:18:12.919Z,99661.75
2023-04-16T09:21:08.408Z,99658.81
2023-04-16T09:24:01.283Z,99663.66
2023-04-16T09:26:44.279Z,99669.19
2023-04-16T09:29:48.697Z,99680.22
2023-04-16T09:32:31.423Z,99668.75
2023-04-16T09:35:18.165Z,99671.63
2023-04-16T09:38:19.535Z,99676.13
2023-04-16T09:41:19.377Z,99674.53
2023-04-16T09:44:08.807Z,99684.91
2023-04-16T09:47:05.827Z,99682.53
2023-04-16T09:49:56.774Z,99688.59
2023-04-16T09:52:40.000Z,99689.44
2023-04-16T09:55:19.295Z,99690.72
2023-04-16T09:58:10.713Z,99686.38
2023-04-16T10:00:57.275Z,99683.63
2023-04-16T10:03:48.035Z,99685.88
2023-04-16T10:06:27.852Z,99683.50
2023-04-16T10:09:15.488Z,99678.31
2023-04-16T10:11:56.123Z,99681.41
2023-04-16T10:14:46.109Z,99676.09
2023-04-16T10:17:40.543Z,99674.00
2023-04-16T10:20:22.921Z,99673.53
2023-04-16T10:23:09.624Z,99672.94
2023-04-16T10:25:56.976Z,99676.16
2023-04-16T10:28:43.663Z,99676.16
2023-04-16T10:31:27.791Z,99684.66
2023-04-16T10:34:13.911Z,99677.75
2023-04-16T10:37:13.298Z,99671.50
2023-04-16T10:39:51.658Z,99675.09
2023-04-16T10:42:37.381Z,99674.91
2023-04-16T10:45:23.789Z,99670.75
2023-04-16T10:48:11.972Z,99666.34
2023-04-16T10:51:07.235Z,99672.38
2023-04-16T10:53:51.093Z,99663.44
2023-04-16T10:56:34.852Z,99669.44
2023-04-16T10:59:16.791Z,99668.28
2023-04-16T11:01:53.081Z,99670.16
2023-04-16T11:04:40.291Z,99671.53
2023-04-16T11:07:49.585Z,99664.06
2023-04-16T11:10:30.865Z,99664.91
2023-04-16T11:13:20.378Z,99667.88
2023-04-16T11:16:04.793Z,99662.03
2023-04-16T11:18:51.454Z,99659.78
2023-04-16T11:21:33.752Z,99667.25
2023-04-16T11:24:18.567Z,99665.63
2023-04-16T11:27:05.358Z,99669.28
2023-04-16T11:29:48.958Z,99665.31
2023-04-16T11:32:37.345Z,99662.28
2023-04-16T11:35:22.000Z,99665.75
2023-04-16T11:38:17.174Z,99656.75
2023-04-16T11:41:01.323Z,99653.22
2023-04-16T11:43:44.943Z,99652.97
2023-04-16T11:46:43.128Z,99660.03
2023-04-16T11:49:20.964Z,99651.63
2023-04-16T11:52:04.663Z,99648.66
2023-04-16T11:54:53.801Z,99652.75
2023-04-16T11:57:46.149Z,99639.09
2023-04-16T12:00:34.663Z,99645.66
2023-04-16T12:03:25.894Z,99642.94
2023-04-16T12:06:16.138Z,99640.75
2023-04-16T12:08:56.813Z,99643.47
2023-04-16T12:11:58.732Z,99637.47
2023-04-16T12:15:00.246Z,99635.81
2023-04-16T12:17:42.983Z,99635.28
2023-04-16T12:20:44.272Z,99630.59
2023-04-16T12:23:36.274Z,99628.97
2023-04-16T12:26:23.824Z,99621.56
2023-04-16T12:29:01.522Z,99622.59
2023-04-16T12:31:50.814Z,99617.72
2023-04-16T12:34:55.739Z,99617.06
2023-04-16T12:37:43.942Z,99612.75
2023-04-16T12:40:52.008Z,99614.38
2023-04-16T12:43:36.043Z,99607.34
2023-04-16T12:46:35.811Z,99603.47
2023-04-16T12:49:24.786Z,99601.88
2023-04-16T12:52:03.975Z,99603.16
2023-04-16T12:54:59.946Z,99602.34
2023-04-16T12:57:44.429Z,99595.88
2023-04-16T13:00:33.563Z,99600.53
2023-04-16T13:03:32.912Z,99600.53
2023-04-16T13:06:40.468Z,99601.28
2023-04-16T13:09:29.550Z,99594.97
2023-04-16T13:12:17.728Z,99593.31
2023-04-16T13:15:13.181Z,99594.69
2023-04-16T13:17:58.881Z,99582.09
2023-04-16T13:20:42.175Z,99582.47
2023-04-16T13:23:41.756Z,99582.75
2023-04-16T13:26:42.871Z,99582.44
2023-04-16T13:29:47.769Z,99587.34
2023-04-16T13:32:37.584Z,99579.34
2023-04-16T13:35:34.271Z,99579.25
2023-04-16T13:38:17.940Z,99580.63
2023-04-16T13:41:09.949Z,99574.69
2023-04-16T13:43:54.780Z,99575.94
2023-04-16T13:46:57.998Z,99573.53
2023-04-16T13:49:38.905Z,99566.72
2023-04-16T13:52:22.213Z,99562.66
2023-04-16T13:55:14.216Z,99565.75
2023-04-16T13:57:56.923Z,99565.16
2023-04-16T14:00:43.835Z,99555.69
2023-04-16T14:03:34.320Z,99553.25
2023-04-16T14:06:18.222Z,99550.94
2023-04-16T14:09:06.708Z,99545.72
2023-04-16T14:11:45.786Z,99549.53
2023-04-16T14:14:20.899Z,99543.09
2023-04-16T14:16:58.975Z,99544.31
2023-04-16T14:19:36.957Z,99548.25
2023-04-16T14:22:25.427Z,99549.00
2023-04-16T14:25:11.616Z,99543.19
2023-04-16T14:28:07.152Z,99538.78
2023-04-16T14:30:44.869Z,99541.47
2023-04-16T14:33:25.606Z,99544.31
2023-04-16T14:36:16.514Z,99547.97
2023-04-16T14:38:54.741Z,99542.59
2023-04-16T14:41:33.348Z,99542.72
2023-04-16T14:44:12.697Z,99535.75
2023-04-16T14:46:53.911Z,99533.66
2023-04-16T14:49:37.796Z,99537.94
2023-04-16T14:52:15.823Z,99537.41
2023-04-16T14:55:05.329Z,99536.47
2023-04-16T14:57:50.720Z,99542.84
2023-04-16T15:00:34.169Z,99539.88
2023-04-16T15:03:15.214Z,99535.38
2023-04-16T15:05:57.795Z,99537.53
2023-04-16T15:08:41.513Z,99529.78
2023-04-16T15:11:30.345Z,99537.66
2023-04-16T15:14:11.429Z,99534.06
2023-04-16T15:16:55.801Z,99526.34
2023-04-16T15:19:42.724Z,99529.00
2023-04-16T15:22:24.885Z,99521.34
2023-04-16T15:25:13.186Z,99523.22
2023-04-16T15:28:02.596Z,99523.63
2023-04-16T15:30:38.857Z,99527.72
2023-04-16T15:33:17.816Z,99524.06
2023-04-16T15:35:54.141Z,99522.81
2023-04-16T15:38:42.959Z,99526.66
2023-04-16T15:41:29.186Z,99528.59
2023-04-16T15:44:17.833Z,99533.25
2023-04-16T15:46:58.860Z,99535.13
2023-04-16T15:49:49.906Z,99538.75
2023-04-16T15:52:27.575Z,99530.34
2023-04-16T15:55:13.944Z,99536.06
2023-04-16T15:58:00.090Z,99531.56
2023-04-16T16:00:43.298Z,99535.16
2023-04-16T16:03:29.769Z,99536.34
2023-04-16T16:06:11.621Z,99526.06
2023-04-16T16:08:53.486Z,99533.50
2023-04-16T16:11:37.495Z,99537.88
2023-04-16T16:14:31.103Z,99531.84
2023-04-16T16:17:16.687Z,99533.75
2023-04-16T16:20:04.144Z,99526.63
2023-04-16T16:22:57.246Z,99529.66
2023-04-16T16:25:41.216Z,99535.94
2023-04-16T16:28:24.503Z,99537.31
2023-04-16T16:31:13.700Z,99531.81
2023-04-16T16:33:59.254Z,99536.69
2023-04-16T16:36:40.071Z,99538.03
2023-04-16T16:39:30.895Z,99544.03
2023-04-16T16:42:18.840Z,99541.59
2023-04-16T16:45:06.832Z,99542.34
2023-04-16T16:47:57.668Z,99537.44
2023-04-16T16:50:42.537Z,99536.59
2023-04-16T16:53:31.070Z,99538.28
2023-04-16T16:56:14.888Z,99545.00
2023-04-16T16:58:58.089Z,99546.06
2023-04-16T17:01:46.882Z,99546.50
2023-04-16T17:04:28.449Z,99540.19
2023-04-16T17:07:14.819Z,99553.59
2023-04-16T17:10:00.383Z,99548.69
2023-04-16T17:12:43.807Z,99550.13
2023-04-16T17:15:24.502Z,99548.56
2023-04-16T17:18:11.298Z,99555.00
2023-04-16T17:20:58.141Z,99550.47
2023-04-16T17:23:41.018Z,99561.88
2023-04-16T17:26:22.157Z,99565.53
2023-04-16T17:29:06.967Z,99575.81
2023-04-16T17:31:54.420Z,99570.97
2023-04-16T17:34:40.294Z,99573.06
2023-04-16T17:37:23.556Z,99576.22
2023-04-16T17:40:08.964Z,99577.19
2023-04-16T17:42:50.838Z,99578.75
2023-04-16T17:45:48.321Z,99574.13
2023-04-16T17:48:25.453Z,99564.13
2023-04-16T17:51:03.870Z,99562.97
2023-04-16T17:53:44.907Z,99570.97
2023-04-16T17:56:23.432Z,99573.88
2023-04-16T17:59:08.209Z,99582.03
2023-04-16T18:01:59.662Z,99586.09
2023-04-16T18:04:48.826Z,99583.63
2023-04-16T18:07:47.230Z,99582.66
2023-04-16T18:10:51.258Z,99589.09
2023-04-16T18:13:43.412Z,99595.50
2023-04-16T18:16:37.622Z,99587.50
2023-04-16T18:19:45.450Z,99584.53
2023-04-16T18:22:28.609Z,99583.72
2023-04-16T18:25:19.025Z,99584.81
2023-04-16T18:28:03.985Z,99588.94
2023-04-16T18:30:58.710Z,99578.72
2023-04-16T18:33:55.561Z,99579.72
2023-04-16T18:36:45.196Z,99571.22
2023-04-16T18:39:28.704Z,99582.72
2023-04-16T18:42:07.187Z,99579.63
2023-04-16T18:44:59.323Z,99569.31
2023-04-16T18:47:41.889Z,99568.00
2023-04-16T18:50:23.245Z,99572.34
2023-04-16T18:53:04.185Z,99579.59
2023-04-16T18:55:50.219Z,99578.88
2023-04-16T18:58:39.249Z,99585.66
2023-04-16T19:01:25.166Z,99587.88
2023-04-16T19:04:09.665Z,99589.84
2023-04-16T19:06:54.380Z,99582.16
2023-04-16T19:09:43.903Z,99587.69
2023-04-16T19:12:29.046Z,99588.59
2023-04-16T19:15:15.854Z,99587.19
2023-04-16T19:17:55.863Z,99581.66
2023-04-16T19:20:41.621Z,99582.03
2023-04-16T19:23:17.028Z,99588.34
2023-04-16T19:26:04.969Z,99576.53
2023-04-16T19:28:45.776Z,99582.69
2023-04-16T19:31:28.920Z,99575.63
2023-04-16T19:34:12.815Z,99573.06
2023-04-16T19:36:56.646Z,99575.22
2023-04-16T19:39:34.443Z,99577.56
2023-04-16T19:42:15.878Z,99576.41
2023-04-16T19:45:05.073Z,99568.72
2023-04-16T19:47:55.312Z,99572.97
2023-04-16T19:50:46.604Z,99570.75
2023-04-16T19:53:34.921Z,99572.63
2023-04-16T19:56:18.790Z,99564.16
2023-04-16T19:59:02.155Z,99569.09
2023-04-16T20:01:46.946Z,99570.97
2023-04-16T20:04:36.844Z,99575.59
2023-04-16T20:07:22.115Z,99571.34
2023-04-16T20:10:08.715Z,99573.09
2023-04-16T20:12:52.225Z,99572.50
2023-04-16T20:15:43.597Z,99584.19
2023-04-16T20:18:25.988Z,99570.38
2023-04-16T20:21:07.146Z,99575.66
2023-04-16T20:23:52.457Z,99571.09
2023-04-16T20:26:39.042Z,99568.28
2023-04-16T20:29:30.136Z,99558.59
2023-04-16T20:32:08.531Z,99566.13
2023-04-16T20:34:49.803Z,99564.16
2023-04-16T20:37:22.771Z,99567.31
2023-04-16T20:40:07.823Z,99558.97
2023-04-16T20:42:57.877Z,99555.09
2023-04-16T20:45:41.035Z,99556.47
2023-04-16T20:48:22.233Z,99555.78
2023-04-16T20:51:03.175Z,99558.34
2023-04-16T20:53:50.197Z,99572.03
2023-04-16T20:56:40.147Z,99568.25
2023-04-16T20:59:36.969Z,99562.00
2023-04-16T21:02:22.716Z,99564.13
2023-04-16T21:05:06.354Z,99564.84
2023-04-16T21:07:43.880Z,99561.56
2023-04-16T21:10:21.658Z,99560.38
2023-04-16T21:13:02.445Z,99561.19
2023-04-16T21:16:08.365Z,99564.59
2023-04-16T21:18:55.105Z,99556.34
2023-04-16T21:21:47.032Z,99557.19
2023-04-16T21:24:27.800Z,99556.06
2023-04-16T21:27:11.611Z,99558.50
2023-04-16T21:29:55.326Z,99551.50
2023-04-16T21:32:35.644Z,99558.44
2023-04-16T21:35:13.867Z,99553.97
2023-04-16T21:38:07.279Z,99541.94
2023-04-16T21:40:56.647Z,99547.78
2023-04-16T21:43:37.899Z,99551.09
2023-04-16T21:46:21.573Z,99544.53
2023-04-16T21:49:01.592Z,99548.03
2023-04-16T21:51:47.929Z,99548.38
2023-04-16T21:54:38.276Z,99546.97
2023-04-16T21:57:24.638Z,99542.50
2023-04-16T22:00:14.349Z,99537.69
2023-04-16T22:03:09.311Z,99534.38
2023-04-16T22:05:44.850Z,99532.31
2023-04-16T22:08:27.777Z,99529.84
2023-04-16T22:11:13.358Z,99529.00
2023-04-16T22:13:51.093Z,99525.34
2023-04-16T22:16:37.437Z,99529.00
2023-04-16T22:19:22.467Z,99524.53
2023-04-16T22:22:11.742Z,99525.44
2023-04-16T22:24:55.772Z,99533.19
2023-04-16T22:27:31.382Z,99524.00
2023-04-16T22:30:15.605Z,99525.09
2023-04-16T22:32:53.792Z,99528.38
2023-04-16T22:35:39.061Z,99521.44
2023-04-16T22:38:21.501Z,99520.03
2023-04-16T22:41:00.910Z,99519.06
2023-04-16T22:43:44.029Z,99517.19
2023-04-16T22:46:27.933Z,99514.41
2023-04-16T22:49:09.360Z,99514.72
2023-04-16T22:51:58.785Z,99513.78
2023-04-16T22:54:41.738Z,99500.88
2023-04-16T22:57:17.394Z,99502.97
2023-04-16T23:00:12.629Z,99500.53
2023-04-16T23:03:00.580Z,99506.41
2023-04-16T23:05:44.069Z,99496.19
2023-04-16T23:08:21.788Z,99494.78
2023-04-16T23:11:02.263Z,99499.84
2023-04-16T23:13:54.503Z,99485.88
2023-04-16T23:16:43.091Z,99489.28
2023-04-16T23:19:25.301Z,99487.13
2023-04-16T23:22:06.810Z,99492.78
2023-04-16T23:24:55.085Z,99483.53
2023-04-16T23:27:32.550Z,99484.81
2023-04-16T23:30:11.951Z,99486.91
2023-04-16T23:32:57.601Z,99480.59
2023-04-16T23:35:39.808Z,99479.53
2023-04-16T23:38:20.415Z,99482.69
2023-04-16T23:41:07.838Z,99483.47
2023-04-16T23:43:52.048Z,99467.16
2023-04-16T23:46:32.789Z,99464.09
2023-04-16T23:49:18.379Z,99466.69
2023-04-16T23:51:59.195Z,99465.75
2023-04-16T23:54:33.752Z,99462.09
2023-04-16T23:57:18.065Z,99464.78
